METAR AND TAF INFORMATION
METAR FOR EPSC
ADDS - METARS form results

(0526 UTC 14 September 2022)
Data provider http://aviationweather.gov/metar/data/
 
METAR text: EPSC 140500Z 24007KT 210V270 9999 FEW027 BKN036 13/11 Q1004
Conditions at: EPSC (SZCZECIN/GOLENIO, PL) observed 0500 UTC 14 September 2022
Temperature: 13.0°C (55°F)
Dewpoint: 11.0°C (52°F) [RH = 88%]
Pressure (altimeter): 29.65 inches Hg (1004.0 mb)
Winds: from the WSW (240 degrees) at 8 MPH (7 knots; 3.6 m/s)
Visibility: 6 or more miles (10+ km)
Ceiling: 3600 feet AGL
Clouds: few clouds at 2700 feet AGL
broken clouds at 3600 feet AGL
Weather: no significant weather observed at this time

METAR text: EPSC 140430Z 24007KT 9999 BKN040 13/11 Q1004
Conditions at: EPSC (SZCZECIN/GOLENIO, PL) observed 0430 UTC 14 September 2022
Temperature: 13.0°C (55°F)
Dewpoint: 11.0°C (52°F) [RH = 88%]
Pressure (altimeter): 29.65 inches Hg (1004.0 mb)
Winds: from the WSW (240 degrees) at 8 MPH (7 knots; 3.6 m/s)
Visibility: 6 or more miles (10+ km)
Ceiling: 4000 feet AGL
Clouds: broken clouds at 4000 feet AGL
Weather: no significant weather observed at this time

Forecast for: EPSC (SZCZECIN/GOLENIO, PL)
Text: TAF EPSC 132330Z 1400/1424 25006KT 9999 FEW035
Forecast period: 0000 UTC 14 September 2022 to 0000 UTC 15 September 2022
Forecast type: FROM: standard forecast or significant change
Winds: from the WSW (250 degrees) at 7 MPH (6 knots; 3.1 m/s)
Visibility: 6 or more miles (10+ km)
Ceiling: at least 12,000 feet AGL
Clouds: few clouds at 3500 feet AGL
Weather: no significant weather forecast for this period
Text: PROB30 1401/1406 BKN010
Forecast period: 0100 to 0600 UTC 14 September 2022
Forecast type: PROBABLE: 30 percent likelihood of the following during this time
Visibility: missing
Ceiling: 1000 feet AGL
Clouds: broken clouds at 1000 feet AGL
Weather: no significant weather forecast for this period

 AIRPORT MAP

 RUNWAY INFORMATION
Runway 13 Runway length 8202 ft Runway width 197 ft
Runway elevation 118 ft Runway displaced threshold 0 ft Runway heading 131
Runway 31 Runway length 8202 ft Runway width 197 ft
Runway elevation 154 ft Runway displaced threshold 0 ft Runway heading 311

 AIRPORT FREQUENCIES
Type TWR Name SZCZECIN T Frequency 118.5 MHZ

 AIRPORT NEAR NAVIGATION AIDS
Type NDB Name Szczecin Frequency 397 KHZ



Powered by Virtual Airlines Manager [v2.6.2]